Aérodrome :
LOGIN :

S'inscrire | Disclaimer

   EN    FR    IT 

 










Légende :    VFR   VFR Marginal   IFR   IFR Intensif   IFR Très Intensif
Visi : 
Plafond : 
>= 8 km
>= 3000ft
5 à 8 km
1000 à 3000 ft
1500m à 5 km
500 à 1000 ft
800 à 1500m
200 à 500 ft
< 800m
< 200 ft
Symboles :   Orages  Brouillard  Fortes neiges  Fortes précipitations  Vent > 20 kt
SIGMETs :   Divers  Orages  Givrage  Turbulence  Onde Orograph.  Cendres Volcan.






- Altitude de l'aérodrome : 291 ft
- Code IATA : ORY


LFPO - Paris-Orly

DERNIER METAR :
  • 190600Z 04008KT 9999 BKN013 BKN022 16/14 Q1014 NOSIG

METARs EXPIRÉS :
  • 190530Z 03009KT 9999 BKN013 BKN020 16/14 Q1014 NOSIG
  • 190500Z AUTO 03009KT 9999 BKN013 OVC019 17/14 Q1014 TEMPO BKN007
  • 190430Z AUTO 03011KT 9999 BKN012 OVC018 17/14 Q1014 TEMPO BKN007
  • 190400Z AUTO 02008KT 9999 OVC012 17/14 Q1014 TEMPO BKN007
  • 190330Z AUTO 01010KT 9999 OVC011 17/15 Q1013 TEMPO BKN007
  • 190300Z AUTO 01009KT 9999 BKN011 OVC017 17/15 Q1013 TEMPO BKN007
  • 190230Z AUTO 04006KT 360V080 9999 OVC013 17/15 Q1014 TEMPO BKN007
  • 190200Z AUTO 04008KT 9999 OVC013 17/15 Q1014 TEMPO BKN007
  • 190130Z AUTO 01005KT 9999 BKN011 OVC016 17/16 Q1013 TEMPO BKN007
  • 190100Z AUTO 02005KT 350V060 9999 BKN012 OVC019 17/16 Q1013 TEMPO BKN007

TAF TAF LFPO
Valide du 19 à 06h jusqu'au 20 à 12h UTC


190500Z 1906/2012 01010KT 9999 BKN012
BECMG 1908/1911 BKN018
PROB40
TEMPO 1908/1921 04010G20KT
ATIS : +33 1 49 75 65 80



MET'MAP, la Météo Aéronautique d'un coup d'oeil ! - Copyright ORBIFLY Décembre 2007 - Disclaimer

ORBIFLY MET'MAP TEAM :

Programmation & Développement : Alexandra Zaïnal
Sur une idée originale de : Baudouin d'Aumeries
Soutien technique & logistique : Manuel Goepfert
Assistance : Marc-Olivier Méhu




SOURCES & CREDITS :

   NOAA